Franklin Lakes, NJ (07417)

4:57 PM EST on January 22, 2018 (GMT -0500)
Wooded Trail, Franklin Lakes | | Change Station

Elev 518 ft 41.01 °N, 74.23 °W | Updated 18 seconds ago

Overcast
Overcast
43.3 °F
Feels Like 43 °F
N
0.0
Wind Variable Wind from WSW
Gusts 0.0 mph

Today
High -- | Low -- °F
--% Chance of Precip.
Yesterday
High -- | Low -- °F
Precip. -- in
Pressure 30.16 in
Visibility 6.0 miles
Clouds Scattered Clouds 9500 ft
Overcast 11000 ft
Windchill 43 °F
Dew Point 26 °F
Humidity 49%
Rainfall 0.02 in
Snow Depth Not available.
7:15 AM 5:01 PM
Waxing Crescent, 29% visible
METAR KCDW 222153Z AUTO 10007KT 6SM BR SCT095 OVC110 06/04 A3014 RMK AO2 RAB2057E08 SLP213 P0000 T00610044 TSNO
Pressure 30.16 in
Visibility 6.0 miles
Clouds Scattered Clouds 9500 ft
Overcast 11000 ft
Windchill 43 °F
Dew Point 26 °F
Humidity 49%
Rainfall 0.02 in
Snow Depth Not available.
7:15 AM 5:01 PM
Waxing Crescent, 29% visible
METAR KCDW 222153Z AUTO 10007KT 6SM BR SCT095 OVC110 06/04 A3014 RMK AO2 RAB2057E08 SLP213 P0000 T00610044 TSNO

Get Severe Weather Alerts

Thanks for signing up!

Be on the lookout for a verification email in your inbox.

You'll start receiving the daily forecast at 6 AM.

×

10-Day Weather Forecast

Almanac

Astronomy

Jan. 22, 2018 Rise Set
Actual Time
Civil Twilight
Nautical Twilight
Astronomical Twilight
Moon
Length of Visible Light
Length of Day
Tomorrow will be .
, % of the Moon is Illuminated

Today's Extremes

State Highs State Lows

Community

WunderPhotos

Category 6

Welcome to Category 6. This is the collective home for Weather Underground's featured writeups by Dr. Jeff Masters (right), Bob Henson (left), Chris Burt, and other regular contributors.

Nearby

Air Quality

  Air Quality AQ Index Pollutant
Not available.

Snow Depth

Station Depth Elevation

Earthquake Activity

City Distance Mag. Time & Date
Minimum magnitude displayed is 2.5.

Coastal Water Temperatures

Place Temperature

Stations

Nearby Weather Stations

Station Location Temp. Windchill Dew Point Humidity Wind Precip. Elev Updated Type
                   

Watches & Warnings

There are currently no watches in effect.